sensor_id;sensor_type;location;lat;lon;timestamp;temperature;humidity
45729;DHT22;31439;53.512;10.206;2024-01-30T00:01:02;6.60;99.90
45729;DHT22;31439;53.512;10.206;2024-01-30T00:03:28;6.60;99.90
45729;DHT22;31439;53.512;10.206;2024-01-30T00:05:55;7.70;99.90
45729;DHT22;31439;53.512;10.206;2024-01-30T00:08:20;7.10;99.90
45729;DHT22;31439;53.512;10.206;2024-01-30T00:10:46;6.60;99.90
45729;DHT22;31439;53.512;10.206;2024-01-30T00:13:12;6.50;99.90
45729;DHT22;31439;53.512;10.206;2024-01-30T00:15:39;6.60;99.90
45729;DHT22;31439;53.512;10.206;2024-01-30T00:18:04;6.60;99.90
45729;DHT22;31439;53.512;10.206;2024-01-30T00:20:30;6.50;99.90
45729;DHT22;31439;53.512;10.206;2024-01-30T00:22:56;6.70;99.90
45729;DHT22;31439;53.512;10.206;2024-01-30T00:25:21;7.30;99.90
45729;DHT22;31439;53.512;10.206;2024-01-30T00:27:47;6.70;99.90
45729;DHT22;31439;53.512;10.206;2024-01-30T00:30:13;6.50;99.90
45729;DHT22;31439;53.512;10.206;2024-01-30T00:32:39;6.50;99.90
45729;DHT22;31439;53.512;10.206;2024-01-30T00:35:05;6.60;99.90
45729;DHT22;31439;53.512;10.206;2024-01-30T00:37:30;6.40;99.90
45729;DHT22;31439;53.512;10.206;2024-01-30T00:39:57;6.40;99.90
45729;DHT22;31439;53.512;10.206;2024-01-30T00:42:22;6.30;99.90
45729;DHT22;31439;53.512;10.206;2024-01-30T00:44:49;6.30;99.90
45729;DHT22;31439;53.512;10.206;2024-01-30T00:47:15;6.40;99.90
45729;DHT22;31439;53.512;10.206;2024-01-30T00:49:40;6.40;99.90
45729;DHT22;31439;53.512;10.206;2024-01-30T00:52:06;6.30;99.90
45729;DHT22;31439;53.512;10.206;2024-01-30T00:54:32;6.30;99.90
45729;DHT22;31439;53.512;10.206;2024-01-30T00:56:57;6.30;99.90
45729;DHT22;31439;53.512;10.206;2024-01-30T00:59:23;6.30;99.90
45729;DHT22;31439;53.512;10.206;2024-01-30T01:01:48;6.30;99.90
45729;DHT22;31439;53.512;10.206;2024-01-30T01:04:14;6.40;99.90
45729;DHT22;31439;53.512;10.206;2024-01-30T01:06:40;6.20;99.90
45729;DHT22;31439;53.512;10.206;2024-01-30T01:09:08;6.20;99.90
45729;DHT22;31439;53.512;10.206;2024-01-30T01:11:33;6.20;99.90
45729;DHT22;31439;53.512;10.206;2024-01-30T01:13:59;6.20;99.90
45729;DHT22;31439;53.512;10.206;2024-01-30T01:16:24;6.20;99.90
45729;DHT22;31439;53.512;10.206;2024-01-30T01:18:50;6.10;99.90
45729;DHT22;31439;53.512;10.206;2024-01-30T01:21:16;6.10;99.90
45729;DHT22;31439;53.512;10.206;2024-01-30T01:23:41;6.10;99.90
45729;DHT22;31439;53.512;10.206;2024-01-30T01:26:08;6.00;99.90
45729;DHT22;31439;53.512;10.206;2024-01-30T01:28:35;6.10;99.90
45729;DHT22;31439;53.512;10.206;2024-01-30T01:31:00;6.20;99.90
45729;DHT22;31439;53.512;10.206;2024-01-30T01:33:31;6.10;99.90
45729;DHT22;31439;53.512;10.206;2024-01-30T01:35:58;6.00;99.90
45729;DHT22;31439;53.512;10.206;2024-01-30T01:38:24;6.00;99.90
45729;DHT22;31439;53.512;10.206;2024-01-30T01:40:49;6.00;99.90
45729;DHT22;31439;53.512;10.206;2024-01-30T01:43:16;5.90;99.90
45729;DHT22;31439;53.512;10.206;2024-01-30T01:45:42;5.90;99.90
45729;DHT22;31439;53.512;10.206;2024-01-30T01:48:08;6.00;99.90
45729;DHT22;31439;53.512;10.206;2024-01-30T01:50:34;6.00;99.90
45729;DHT22;31439;53.512;10.206;2024-01-30T01:53:02;6.00;99.90
45729;DHT22;31439;53.512;10.206;2024-01-30T01:55:29;5.90;99.90
45729;DHT22;31439;53.512;10.206;2024-01-30T01:57:55;6.00;99.90
45729;DHT22;31439;53.512;10.206;2024-01-30T02:00:21;6.00;99.90
45729;DHT22;31439;53.512;10.206;2024-01-30T02:02:47;6.10;99.90
45729;DHT22;31439;53.512;10.206;2024-01-30T02:05:14;6.00;99.90
45729;DHT22;31439;53.512;10.206;2024-01-30T02:07:40;6.00;99.90
45729;DHT22;31439;53.512;10.206;2024-01-30T02:10:08;5.90;99.90
45729;DHT22;31439;53.512;10.206;2024-01-30T02:12:34;5.90;99.90
45729;DHT22;31439;53.512;10.206;2024-01-30T02:15:00;5.90;99.90
45729;DHT22;31439;53.512;10.206;2024-01-30T02:17:25;6.00;99.90
45729;DHT22;31439;53.512;10.206;2024-01-30T02:19:52;6.00;99.90
45729;DHT22;31439;53.512;10.206;2024-01-30T02:22:18;6.00;99.90
45729;DHT22;31439;53.512;10.206;2024-01-30T02:24:44;6.10;99.90
45729;DHT22;31439;53.512;10.206;2024-01-30T02:27:10;6.00;99.90
45729;DHT22;31439;53.512;10.206;2024-01-30T02:29:36;6.00;99.90
45729;DHT22;31439;53.512;10.206;2024-01-30T02:32:01;7.00;99.90
45729;DHT22;31439;53.512;10.206;2024-01-30T02:34:27;6.00;99.90
45729;DHT22;31439;53.512;10.206;2024-01-30T02:36:53;6.00;99.90
45729;DHT22;31439;53.512;10.206;2024-01-30T02:39:18;6.00;99.90
45729;DHT22;31439;53.512;10.206;2024-01-30T02:41:44;6.10;99.90
45729;DHT22;31439;53.512;10.206;2024-01-30T02:44:09;6.10;99.90
45729;DHT22;31439;53.512;10.206;2024-01-30T02:46:35;6.00;99.90
45729;DHT22;31439;53.512;10.206;2024-01-30T02:49:01;6.00;99.90
45729;DHT22;31439;53.512;10.206;2024-01-30T02:51:27;5.90;99.90
45729;DHT22;31439;53.512;10.206;2024-01-30T02:53:52;6.00;99.90
45729;DHT22;31439;53.512;10.206;2024-01-30T02:56:18;6.00;99.90
45729;DHT22;31439;53.512;10.206;2024-01-30T02:58:43;6.10;99.90
45729;DHT22;31439;53.512;10.206;2024-01-30T03:01:09;6.00;99.90
45729;DHT22;31439;53.512;10.206;2024-01-30T03:03:35;6.10;99.90
45729;DHT22;31439;53.512;10.206;2024-01-30T03:06:01;5.90;99.90
45729;DHT22;31439;53.512;10.206;2024-01-30T03:08:27;5.90;99.90
45729;DHT22;31439;53.512;10.206;2024-01-30T03:10:53;6.00;99.90
45729;DHT22;31439;53.512;10.206;2024-01-30T03:13:18;6.00;99.90
45729;DHT22;31439;53.512;10.206;2024-01-30T03:15:44;5.90;99.90
45729;DHT22;31439;53.512;10.206;2024-01-30T03:18:10;5.90;99.90
45729;DHT22;31439;53.512;10.206;2024-01-30T03:20:36;5.90;99.90
45729;DHT22;31439;53.512;10.206;2024-01-30T03:23:01;5.80;99.90
45729;DHT22;31439;53.512;10.206;2024-01-30T03:25:27;5.80;99.90
45729;DHT22;31439;53.512;10.206;2024-01-30T03:27:53;5.90;99.90
45729;DHT22;31439;53.512;10.206;2024-01-30T03:30:18;5.80;99.90
45729;DHT22;31439;53.512;10.206;2024-01-30T03:32:44;5.90;99.90
45729;DHT22;31439;53.512;10.206;2024-01-30T03:35:09;5.90;99.90
45729;DHT22;31439;53.512;10.206;2024-01-30T03:37:35;6.00;99.90
45729;DHT22;31439;53.512;10.206;2024-01-30T03:40:02;6.00;99.90
45729;DHT22;31439;53.512;10.206;2024-01-30T03:42:27;6.00;99.90
45729;DHT22;31439;53.512;10.206;2024-01-30T03:44:53;5.90;99.90
45729;DHT22;31439;53.512;10.206;2024-01-30T03:47:20;5.90;99.90
45729;DHT22;31439;53.512;10.206;2024-01-30T03:49:46;5.90;99.90
45729;DHT22;31439;53.512;10.206;2024-01-30T03:52:12;5.90;99.90
45729;DHT22;31439;53.512;10.206;2024-01-30T03:54:37;5.90;99.90
45729;DHT22;31439;53.512;10.206;2024-01-30T03:57:03;5.90;99.90
45729;DHT22;31439;53.512;10.206;2024-01-30T03:59:29;5.90;99.90
45729;DHT22;31439;53.512;10.206;2024-01-30T04:01:55;5.90;99.90
45729;DHT22;31439;53.512;10.206;2024-01-30T04:04:20;5.90;99.90
45729;DHT22;31439;53.512;10.206;2024-01-30T04:06:46;5.90;99.90
45729;DHT22;31439;53.512;10.206;2024-01-30T04:09:13;6.00;99.90
45729;DHT22;31439;53.512;10.206;2024-01-30T04:11:39;6.00;99.90
45729;DHT22;31439;53.512;10.206;2024-01-30T04:14:05;6.00;99.90
45729;DHT22;31439;53.512;10.206;2024-01-30T04:16:31;5.90;99.90
45729;DHT22;31439;53.512;10.206;2024-01-30T04:18:56;5.90;99.90
45729;DHT22;31439;53.512;10.206;2024-01-30T04:21:22;5.90;99.90
45729;DHT22;31439;53.512;10.206;2024-01-30T04:23:48;5.90;99.90
45729;DHT22;31439;53.512;10.206;2024-01-30T04:26:14;6.00;99.90
45729;DHT22;31439;53.512;10.206;2024-01-30T04:28:45;5.90;99.90
45729;DHT22;31439;53.512;10.206;2024-01-30T04:31:11;5.80;99.90
45729;DHT22;31439;53.512;10.206;2024-01-30T04:33:36;5.80;99.90
45729;DHT22;31439;53.512;10.206;2024-01-30T04:36:03;5.80;99.90
45729;DHT22;31439;53.512;10.206;2024-01-30T04:38:29;5.80;99.90
45729;DHT22;31439;53.512;10.206;2024-01-30T04:40:54;5.80;99.90
45729;DHT22;31439;53.512;10.206;2024-01-30T04:43:20;5.90;99.90
45729;DHT22;31439;53.512;10.206;2024-01-30T04:45:47;5.80;99.90
45729;DHT22;31439;53.512;10.206;2024-01-30T04:48:12;5.80;99.90
45729;DHT22;31439;53.512;10.206;2024-01-30T04:50:38;5.80;99.90
45729;DHT22;31439;53.512;10.206;2024-01-30T04:53:04;5.80;99.90
45729;DHT22;31439;53.512;10.206;2024-01-30T04:55:29;5.80;99.90
45729;DHT22;31439;53.512;10.206;2024-01-30T04:57:55;5.80;99.90
45729;DHT22;31439;53.512;10.206;2024-01-30T05:00:21;5.80;99.90
45729;DHT22;31439;53.512;10.206;2024-01-30T05:02:46;5.80;99.90
45729;DHT22;31439;53.512;10.206;2024-01-30T05:05:12;5.80;99.90
45729;DHT22;31439;53.512;10.206;2024-01-30T05:07:40;5.80;99.90
45729;DHT22;31439;53.512;10.206;2024-01-30T05:10:06;5.80;99.90
45729;DHT22;31439;53.512;10.206;2024-01-30T05:12:33;5.80;99.90
45729;DHT22;31439;53.512;10.206;2024-01-30T05:14:59;5.80;99.90
45729;DHT22;31439;53.512;10.206;2024-01-30T05:17:24;5.70;99.90
45729;DHT22;31439;53.512;10.206;2024-01-30T05:19:50;5.80;99.90
45729;DHT22;31439;53.512;10.206;2024-01-30T05:22:16;5.80;99.90
45729;DHT22;31439;53.512;10.206;2024-01-30T05:24:44;5.80;99.90
45729;DHT22;31439;53.512;10.206;2024-01-30T05:27:09;5.80;99.90
45729;DHT22;31439;53.512;10.206;2024-01-30T05:29:35;5.80;99.90
45729;DHT22;31439;53.512;10.206;2024-01-30T05:32:01;5.70;99.90
45729;DHT22;31439;53.512;10.206;2024-01-30T05:34:27;5.80;99.90
45729;DHT22;31439;53.512;10.206;2024-01-30T05:36:52;5.70;99.90
45729;DHT22;31439;53.512;10.206;2024-01-30T05:39:18;5.70;99.90
45729;DHT22;31439;53.512;10.206;2024-01-30T05:41:43;5.70;99.90
45729;DHT22;31439;53.512;10.206;2024-01-30T05:44:09;5.60;99.90
45729;DHT22;31439;53.512;10.206;2024-01-30T05:46:35;5.60;99.90
45729;DHT22;31439;53.512;10.206;2024-01-30T05:49:01;5.60;99.90
45729;DHT22;31439;53.512;10.206;2024-01-30T05:51:26;5.60;99.90
45729;DHT22;31439;53.512;10.206;2024-01-30T05:53:53;5.60;99.90
45729;DHT22;31439;53.512;10.206;2024-01-30T05:56:19;5.70;99.90
45729;DHT22;31439;53.512;10.206;2024-01-30T05:58:45;5.70;99.90
45729;DHT22;31439;53.512;10.206;2024-01-30T06:01:11;5.70;99.90
45729;DHT22;31439;53.512;10.206;2024-01-30T06:03:36;5.70;99.90
45729;DHT22;31439;53.512;10.206;2024-01-30T06:06:02;5.80;99.90
45729;DHT22;31439;53.512;10.206;2024-01-30T06:08:28;5.70;99.90
45729;DHT22;31439;53.512;10.206;2024-01-30T06:10:53;5.80;99.90
45729;DHT22;31439;53.512;10.206;2024-01-30T06:13:20;5.70;99.90
45729;DHT22;31439;53.512;10.206;2024-01-30T06:15:45;5.80;99.90
45729;DHT22;31439;53.512;10.206;2024-01-30T06:18:11;5.80;99.90
45729;DHT22;31439;53.512;10.206;2024-01-30T06:20:37;5.80;99.90
45729;DHT22;31439;53.512;10.206;2024-01-30T06:23:02;5.80;99.90
45729;DHT22;31439;53.512;10.206;2024-01-30T06:25:28;5.80;99.90
45729;DHT22;31439;53.512;10.206;2024-01-30T06:27:54;5.80;99.90
45729;DHT22;31439;53.512;10.206;2024-01-30T06:30:20;5.90;99.90
45729;DHT22;31439;53.512;10.206;2024-01-30T06:32:45;5.80;99.90
45729;DHT22;31439;53.512;10.206;2024-01-30T06:35:11;5.80;99.90
45729;DHT22;31439;53.512;10.206;2024-01-30T06:37:37;5.70;99.90
45729;DHT22;31439;53.512;10.206;2024-01-30T06:40:03;5.80;99.90
45729;DHT22;31439;53.512;10.206;2024-01-30T06:42:30;5.80;99.90
45729;DHT22;31439;53.512;10.206;2024-01-30T06:44:56;5.90;99.90
45729;DHT22;31439;53.512;10.206;2024-01-30T06:47:22;5.80;99.90
45729;DHT22;31439;53.512;10.206;2024-01-30T06:49:47;5.90;99.90
45729;DHT22;31439;53.512;10.206;2024-01-30T06:52:13;5.90;99.90
45729;DHT22;31439;53.512;10.206;2024-01-30T06:54:39;5.90;99.90
45729;DHT22;31439;53.512;10.206;2024-01-30T06:57:05;5.90;99.90
45729;DHT22;31439;53.512;10.206;2024-01-30T06:59:34;5.90;99.90
45729;DHT22;31439;53.512;10.206;2024-01-30T07:02:00;5.90;99.90
45729;DHT22;31439;53.512;10.206;2024-01-30T07:04:25;6.60;99.90
45729;DHT22;31439;53.512;10.206;2024-01-30T07:06:51;5.90;99.90
45729;DHT22;31439;53.512;10.206;2024-01-30T07:09:18;5.90;99.90
45729;DHT22;31439;53.512;10.206;2024-01-30T07:11:44;6.00;99.90
45729;DHT22;31439;53.512;10.206;2024-01-30T07:14:10;6.00;99.90
45729;DHT22;31439;53.512;10.206;2024-01-30T07:16:36;6.00;99.90
45729;DHT22;31439;53.512;10.206;2024-01-30T07:19:01;6.00;99.90
45729;DHT22;31439;53.512;10.206;2024-01-30T07:21:27;6.00;99.90
45729;DHT22;31439;53.512;10.206;2024-01-30T07:23:56;6.10;99.90
45729;DHT22;31439;53.512;10.206;2024-01-30T07:26:22;5.90;99.90
45729;DHT22;31439;53.512;10.206;2024-01-30T07:28:48;5.90;99.90
45729;DHT22;31439;53.512;10.206;2024-01-30T07:31:14;5.90;99.90
45729;DHT22;31439;53.512;10.206;2024-01-30T07:33:39;5.90;99.90
45729;DHT22;31439;53.512;10.206;2024-01-30T07:36:05;6.00;99.90
45729;DHT22;31439;53.512;10.206;2024-01-30T07:38:34;5.90;99.90
45729;DHT22;31439;53.512;10.206;2024-01-30T07:40:59;5.90;99.90
45729;DHT22;31439;53.512;10.206;2024-01-30T07:43:25;6.00;99.90
45729;DHT22;31439;53.512;10.206;2024-01-30T07:45:51;5.90;99.90
45729;DHT22;31439;53.512;10.206;2024-01-30T07:48:16;6.10;99.90
45729;DHT22;31439;53.512;10.206;2024-01-30T07:50:42;6.00;99.90
45729;DHT22;31439;53.512;10.206;2024-01-30T07:53:08;6.00;99.90
45729;DHT22;31439;53.512;10.206;2024-01-30T07:55:33;6.00;99.90
45729;DHT22;31439;53.512;10.206;2024-01-30T08:01:26;6.00;99.90
45729;DHT22;31439;53.512;10.206;2024-01-30T08:03:53;6.10;99.90
45729;DHT22;31439;53.512;10.206;2024-01-30T08:06:18;6.10;99.90
45729;DHT22;31439;53.512;10.206;2024-01-30T08:08:45;6.10;99.90
45729;DHT22;31439;53.512;10.206;2024-01-30T08:11:10;6.10;99.90
45729;DHT22;31439;53.512;10.206;2024-01-30T08:13:36;6.10;99.90
45729;DHT22;31439;53.512;10.206;2024-01-30T08:16:01;6.10;99.90
45729;DHT22;31439;53.512;10.206;2024-01-30T08:18:27;6.20;99.90
45729;DHT22;31439;53.512;10.206;2024-01-30T08:20:53;6.20;99.90
45729;DHT22;31439;53.512;10.206;2024-01-30T08:23:18;6.80;99.90
45729;DHT22;31439;53.512;10.206;2024-01-30T08:25:44;6.20;99.90
45729;DHT22;31439;53.512;10.206;2024-01-30T08:28:09;6.90;99.90
45729;DHT22;31439;53.512;10.206;2024-01-30T08:30:35;6.20;99.90
45729;DHT22;31439;53.512;10.206;2024-01-30T08:33:01;6.20;99.90
45729;DHT22;31439;53.512;10.206;2024-01-30T08:35:26;6.20;99.90
45729;DHT22;31439;53.512;10.206;2024-01-30T08:37:52;7.20;99.90
45729;DHT22;31439;53.512;10.206;2024-01-30T08:40:19;7.00;99.90
45729;DHT22;31439;53.512;10.206;2024-01-30T08:42:45;6.30;99.90
45729;DHT22;31439;53.512;10.206;2024-01-30T08:45:11;6.40;99.90
45729;DHT22;31439;53.512;10.206;2024-01-30T08:47:36;6.40;99.90
45729;DHT22;31439;53.512;10.206;2024-01-30T08:50:02;6.50;99.90
45729;DHT22;31439;53.512;10.206;2024-01-30T08:52:29;6.60;99.90
45729;DHT22;31439;53.512;10.206;2024-01-30T08:54:54;6.80;99.90
45729;DHT22;31439;53.512;10.206;2024-01-30T08:57:20;6.80;99.90
45729;DHT22;31439;53.512;10.206;2024-01-30T08:59:46;6.90;99.90
45729;DHT22;31439;53.512;10.206;2024-01-30T09:02:13;7.00;99.90
45729;DHT22;31439;53.512;10.206;2024-01-30T09:04:41;7.00;99.90
45729;DHT22;31439;53.512;10.206;2024-01-30T09:07:08;7.00;99.90
45729;DHT22;31439;53.512;10.206;2024-01-30T09:09:34;7.10;99.90
45729;DHT22;31439;53.512;10.206;2024-01-30T09:12:00;7.00;99.90
45729;DHT22;31439;53.512;10.206;2024-01-30T09:14:30;7.10;99.90
45729;DHT22;31439;53.512;10.206;2024-01-30T09:16:56;7.10;99.90
45729;DHT22;31439;53.512;10.206;2024-01-30T09:19:21;7.20;99.90
45729;DHT22;31439;53.512;10.206;2024-01-30T09:21:47;7.40;99.90
45729;DHT22;31439;53.512;10.206;2024-01-30T09:24:13;7.50;99.90
45729;DHT22;31439;53.512;10.206;2024-01-30T09:26:38;7.70;99.90
45729;DHT22;31439;53.512;10.206;2024-01-30T09:29:04;7.80;99.90
45729;DHT22;31439;53.512;10.206;2024-01-30T09:31:29;8.00;99.90
45729;DHT22;31439;53.512;10.206;2024-01-30T09:33:55;8.00;99.90
45729;DHT22;31439;53.512;10.206;2024-01-30T09:36:21;7.80;99.90
45729;DHT22;31439;53.512;10.206;2024-01-30T09:38:47;7.70;99.90
45729;DHT22;31439;53.512;10.206;2024-01-30T09:41:13;7.60;99.90
45729;DHT22;31439;53.512;10.206;2024-01-30T09:43:39;7.60;99.90
45729;DHT22;31439;53.512;10.206;2024-01-30T09:46:05;7.50;99.90
45729;DHT22;31439;53.512;10.206;2024-01-30T09:48:33;7.50;99.90
45729;DHT22;31439;53.512;10.206;2024-01-30T09:51:00;7.50;99.90
45729;DHT22;31439;53.512;10.206;2024-01-30T09:53:25;7.50;99.90
45729;DHT22;31439;53.512;10.206;2024-01-30T09:55:51;7.50;99.90
45729;DHT22;31439;53.512;10.206;2024-01-30T09:58:17;7.60;99.90
45729;DHT22;31439;53.512;10.206;2024-01-30T10:00:43;7.50;99.90
45729;DHT22;31439;53.512;10.206;2024-01-30T10:03:09;7.50;99.90
45729;DHT22;31439;53.512;10.206;2024-01-30T10:05:36;7.50;99.90
45729;DHT22;31439;53.512;10.206;2024-01-30T10:08:06;7.50;99.90
45729;DHT22;31439;53.512;10.206;2024-01-30T10:10:33;7.50;99.90
45729;DHT22;31439;53.512;10.206;2024-01-30T10:12:59;7.50;99.90
45729;DHT22;31439;53.512;10.206;2024-01-30T10:15:25;7.50;99.90
45729;DHT22;31439;53.512;10.206;2024-01-30T10:17:53;7.60;99.90
45729;DHT22;31439;53.512;10.206;2024-01-30T10:20:18;7.60;99.90
45729;DHT22;31439;53.512;10.206;2024-01-30T10:22:45;7.70;99.90
45729;DHT22;31439;53.512;10.206;2024-01-30T10:25:11;7.60;99.90
45729;DHT22;31439;53.512;10.206;2024-01-30T10:27:39;7.70;99.90
45729;DHT22;31439;53.512;10.206;2024-01-30T10:30:05;7.70;99.90
45729;DHT22;31439;53.512;10.206;2024-01-30T10:32:31;7.80;99.90
45729;DHT22;31439;53.512;10.206;2024-01-30T10:34:56;7.80;99.90
45729;DHT22;31439;53.512;10.206;2024-01-30T10:37:25;7.90;99.90
45729;DHT22;31439;53.512;10.206;2024-01-30T10:39:53;7.90;99.90
45729;DHT22;31439;53.512;10.206;2024-01-30T10:42:20;8.00;99.90
45729;DHT22;31439;53.512;10.206;2024-01-30T10:45:06;8.00;99.90
45729;DHT22;31439;53.512;10.206;2024-01-30T10:47:40;8.00;99.90
45729;DHT22;31439;53.512;10.206;2024-01-30T10:50:08;8.00;99.90
45729;DHT22;31439;53.512;10.206;2024-01-30T10:52:34;8.00;99.90
45729;DHT22;31439;53.512;10.206;2024-01-30T10:55:01;8.10;99.90
45729;DHT22;31439;53.512;10.206;2024-01-30T10:57:27;8.10;99.90
45729;DHT22;31439;53.512;10.206;2024-01-30T10:59:56;8.10;99.90
45729;DHT22;31439;53.512;10.206;2024-01-30T11:02:24;8.20;99.90
45729;DHT22;31439;53.512;10.206;2024-01-30T11:04:50;8.20;99.90
45729;DHT22;31439;53.512;10.206;2024-01-30T11:07:25;8.30;99.90
45729;DHT22;31439;53.512;10.206;2024-01-30T11:09:52;8.30;99.90
45729;DHT22;31439;53.512;10.206;2024-01-30T11:12:22;8.30;99.90
45729;DHT22;31439;53.512;10.206;2024-01-30T11:14:49;8.40;99.90
45729;DHT22;31439;53.512;10.206;2024-01-30T11:17:15;8.40;99.90
45729;DHT22;31439;53.512;10.206;2024-01-30T11:19:41;8.40;99.90
45729;DHT22;31439;53.512;10.206;2024-01-30T11:22:07;8.50;99.90
45729;DHT22;31439;53.512;10.206;2024-01-30T11:24:42;8.50;99.90
45729;DHT22;31439;53.512;10.206;2024-01-30T11:27:09;8.50;99.90
45729;DHT22;31439;53.512;10.206;2024-01-30T11:29:38;8.60;99.90
45729;DHT22;31439;53.512;10.206;2024-01-30T11:32:07;8.70;99.90
45729;DHT22;31439;53.512;10.206;2024-01-30T11:34:33;8.70;99.90
45729;DHT22;31439;53.512;10.206;2024-01-30T11:37:06;8.70;99.90
45729;DHT22;31439;53.512;10.206;2024-01-30T11:39:36;8.70;99.90
45729;DHT22;31439;53.512;10.206;2024-01-30T11:42:03;8.60;99.90
45729;DHT22;31439;53.512;10.206;2024-01-30T11:44:30;8.70;99.90
45729;DHT22;31439;53.512;10.206;2024-01-30T11:47:05;8.80;99.90
45729;DHT22;31439;53.512;10.206;2024-01-30T11:49:30;8.70;99.90
45729;DHT22;31439;53.512;10.206;2024-01-30T11:51:56;8.80;99.90
45729;DHT22;31439;53.512;10.206;2024-01-30T11:54:22;8.80;99.90
45729;DHT22;31439;53.512;10.206;2024-01-30T11:56:48;8.80;99.90
45729;DHT22;31439;53.512;10.206;2024-01-30T11:59:14;8.80;99.90
45729;DHT22;31439;53.512;10.206;2024-01-30T12:01:39;8.80;99.90
45729;DHT22;31439;53.512;10.206;2024-01-30T12:04:05;8.80;99.90
45729;DHT22;31439;53.512;10.206;2024-01-30T12:06:34;8.90;99.90
45729;DHT22;31439;53.512;10.206;2024-01-30T12:09:01;9.00;99.90
45729;DHT22;31439;53.512;10.206;2024-01-30T12:11:29;9.00;99.90
45729;DHT22;31439;53.512;10.206;2024-01-30T12:13:55;9.00;99.90
45729;DHT22;31439;53.512;10.206;2024-01-30T12:16:21;9.10;99.90
45729;DHT22;31439;53.512;10.206;2024-01-30T12:18:48;9.10;99.90
45729;DHT22;31439;53.512;10.206;2024-01-30T12:21:16;9.10;99.90
45729;DHT22;31439;53.512;10.206;2024-01-30T12:23:43;9.10;99.90
45729;DHT22;31439;53.512;10.206;2024-01-30T12:26:10;9.20;99.90
45729;DHT22;31439;53.512;10.206;2024-01-30T12:28:36;9.30;99.90
45729;DHT22;31439;53.512;10.206;2024-01-30T12:31:02;9.30;99.90
45729;DHT22;31439;53.512;10.206;2024-01-30T12:33:29;9.20;99.90
45729;DHT22;31439;53.512;10.206;2024-01-30T12:35:55;9.30;99.90
45729;DHT22;31439;53.512;10.206;2024-01-30T12:38:20;9.30;99.90
45729;DHT22;31439;53.512;10.206;2024-01-30T12:40:46;9.30;99.90
45729;DHT22;31439;53.512;10.206;2024-01-30T12:43:13;9.30;99.90
45729;DHT22;31439;53.512;10.206;2024-01-30T12:45:39;9.40;99.90
45729;DHT22;31439;53.512;10.206;2024-01-30T12:48:05;9.40;99.90
45729;DHT22;31439;53.512;10.206;2024-01-30T12:50:31;8.70;99.90
45729;DHT22;31439;53.512;10.206;2024-01-30T12:52:56;9.50;99.90
45729;DHT22;31439;53.512;10.206;2024-01-30T12:55:23;9.50;99.90
45729;DHT22;31439;53.512;10.206;2024-01-30T12:57:50;9.50;99.90
45729;DHT22;31439;53.512;10.206;2024-01-30T13:00:16;9.60;99.90
45729;DHT22;31439;53.512;10.206;2024-01-30T13:02:42;9.60;99.90
45729;DHT22;31439;53.512;10.206;2024-01-30T13:05:10;9.70;99.90
45729;DHT22;31439;53.512;10.206;2024-01-30T13:07:36;9.60;99.90
45729;DHT22;31439;53.512;10.206;2024-01-30T13:10:02;9.60;99.90
45729;DHT22;31439;53.512;10.206;2024-01-30T13:12:29;10.00;99.90
45729;DHT22;31439;53.512;10.206;2024-01-30T13:14:55;9.60;99.90
45729;DHT22;31439;53.512;10.206;2024-01-30T13:17:21;9.60;99.90
45729;DHT22;31439;53.512;10.206;2024-01-30T13:19:47;9.70;99.90
45729;DHT22;31439;53.512;10.206;2024-01-30T13:22:15;9.70;99.90
45729;DHT22;31439;53.512;10.206;2024-01-30T13:24:41;9.70;99.90
45729;DHT22;31439;53.512;10.206;2024-01-30T13:27:07;9.70;99.90
45729;DHT22;31439;53.512;10.206;2024-01-30T13:29:32;9.80;99.90
45729;DHT22;31439;53.512;10.206;2024-01-30T13:31:58;9.70;99.90
45729;DHT22;31439;53.512;10.206;2024-01-30T13:34:24;9.70;99.90
45729;DHT22;31439;53.512;10.206;2024-01-30T13:36:50;9.80;99.90
45729;DHT22;31439;53.512;10.206;2024-01-30T13:39:16;9.80;99.90
45729;DHT22;31439;53.512;10.206;2024-01-30T13:41:42;9.80;99.90
45729;DHT22;31439;53.512;10.206;2024-01-30T13:44:08;9.80;99.90
45729;DHT22;31439;53.512;10.206;2024-01-30T13:46:35;9.80;99.90
45729;DHT22;31439;53.512;10.206;2024-01-30T13:49:00;9.80;99.90
45729;DHT22;31439;53.512;10.206;2024-01-30T13:51:26;9.80;99.90
45729;DHT22;31439;53.512;10.206;2024-01-30T13:53:52;9.80;99.90
45729;DHT22;31439;53.512;10.206;2024-01-30T13:56:19;9.90;99.90
45729;DHT22;31439;53.512;10.206;2024-01-30T13:58:44;9.90;99.90
45729;DHT22;31439;53.512;10.206;2024-01-30T14:01:10;9.90;99.90
45729;DHT22;31439;53.512;10.206;2024-01-30T14:03:42;9.90;99.90
45729;DHT22;31439;53.512;10.206;2024-01-30T14:06:10;9.90;99.90
45729;DHT22;31439;53.512;10.206;2024-01-30T14:08:36;9.90;99.90
45729;DHT22;31439;53.512;10.206;2024-01-30T14:11:01;10.00;99.90
45729;DHT22;31439;53.512;10.206;2024-01-30T14:13:27;10.00;99.90
45729;DHT22;31439;53.512;10.206;2024-01-30T14:15:52;10.00;99.90
45729;DHT22;31439;53.512;10.206;2024-01-30T14:18:18;10.00;99.90
45729;DHT22;31439;53.512;10.206;2024-01-30T14:20:44;10.00;99.90
45729;DHT22;31439;53.512;10.206;2024-01-30T14:23:10;10.00;99.90
45729;DHT22;31439;53.512;10.206;2024-01-30T14:25:35;10.00;99.90
45729;DHT22;31439;53.512;10.206;2024-01-30T14:28:01;10.00;99.90
45729;DHT22;31439;53.512;10.206;2024-01-30T14:30:26;10.10;99.90
45729;DHT22;31439;53.512;10.206;2024-01-30T14:32:52;10.00;99.90
45729;DHT22;31439;53.512;10.206;2024-01-30T14:35:18;10.00;99.90
45729;DHT22;31439;53.512;10.206;2024-01-30T14:37:44;10.00;99.90
45729;DHT22;31439;53.512;10.206;2024-01-30T14:40:10;10.00;99.90
45729;DHT22;31439;53.512;10.206;2024-01-30T14:42:36;10.00;99.90
45729;DHT22;31439;53.512;10.206;2024-01-30T14:45:03;10.10;99.90
45729;DHT22;31439;53.512;10.206;2024-01-30T14:47:29;10.00;99.90
45729;DHT22;31439;53.512;10.206;2024-01-30T14:49:56;10.00;99.90
45729;DHT22;31439;53.512;10.206;2024-01-30T14:52:22;10.00;99.90
45729;DHT22;31439;53.512;10.206;2024-01-30T14:54:48;10.00;99.90
45729;DHT22;31439;53.512;10.206;2024-01-30T14:57:13;10.00;99.90
45729;DHT22;31439;53.512;10.206;2024-01-30T14:59:40;10.00;99.90
45729;DHT22;31439;53.512;10.206;2024-01-30T15:02:06;10.10;99.90
45729;DHT22;31439;53.512;10.206;2024-01-30T15:04:31;10.10;99.90
45729;DHT22;31439;53.512;10.206;2024-01-30T15:06:57;10.10;99.90
45729;DHT22;31439;53.512;10.206;2024-01-30T15:09:23;10.10;99.90
45729;DHT22;31439;53.512;10.206;2024-01-30T15:11:49;10.10;99.90
45729;DHT22;31439;53.512;10.206;2024-01-30T15:14:15;10.10;99.90
45729;DHT22;31439;53.512;10.206;2024-01-30T15:16:41;10.10;99.90
45729;DHT22;31439;53.512;10.206;2024-01-30T15:19:07;10.10;99.90
45729;DHT22;31439;53.512;10.206;2024-01-30T15:21:33;10.10;99.90
45729;DHT22;31439;53.512;10.206;2024-01-30T15:23:58;10.10;99.90
45729;DHT22;31439;53.512;10.206;2024-01-30T15:26:24;10.10;99.90